sensor_id;sensor_type;location;lat;lon;timestamp;P1;durP1;ratioP1;P2;durP2;ratioP2
69172;SDS011;56280;49.662;8.408;2023-09-12T00:02:12;17.30;;;7.80;;
69172;SDS011;56280;49.662;8.408;2023-09-12T00:04:37;18.57;;;8.23;;
69172;SDS011;56280;49.662;8.408;2023-09-12T00:07:02;16.20;;;8.40;;
69172;SDS011;56280;49.662;8.408;2023-09-12T00:09:28;18.63;;;8.53;;
69172;SDS011;56280;49.662;8.408;2023-09-12T00:11:54;20.70;;;8.57;;
69172;SDS011;56280;49.662;8.408;2023-09-12T00:14:19;19.90;;;8.63;;
69172;SDS011;56280;49.662;8.408;2023-09-12T00:16:47;18.80;;;8.05;;
69172;SDS011;56280;49.662;8.408;2023-09-12T00:19:12;21.48;;;7.90;;
69172;SDS011;56280;49.662;8.408;2023-09-12T00:21:39;16.98;;;9.20;;
69172;SDS011;56280;49.662;8.408;2023-09-12T00:24:07;22.13;;;9.57;;
69172;SDS011;56280;49.662;8.408;2023-09-12T00:26:32;18.70;;;10.00;;
69172;SDS011;56280;49.662;8.408;2023-09-12T00:28:58;20.52;;;9.63;;
69172;SDS011;56280;49.662;8.408;2023-09-12T00:31:23;18.67;;;10.43;;
69172;SDS011;56280;49.662;8.408;2023-09-12T00:33:48;18.63;;;9.47;;
69172;SDS011;56280;49.662;8.408;2023-09-12T00:36:14;18.73;;;9.73;;
69172;SDS011;56280;49.662;8.408;2023-09-12T00:38:39;18.27;;;10.03;;
69172;SDS011;56280;49.662;8.408;2023-09-12T00:41:07;22.63;;;11.30;;
69172;SDS011;56280;49.662;8.408;2023-09-12T00:43:33;21.77;;;10.75;;
69172;SDS011;56280;49.662;8.408;2023-09-12T00:45:58;19.13;;;9.40;;
69172;SDS011;56280;49.662;8.408;2023-09-12T00:48:23;18.20;;;9.83;;
69172;SDS011;56280;49.662;8.408;2023-09-12T00:50:49;19.33;;;9.97;;
69172;SDS011;56280;49.662;8.408;2023-09-12T00:53:16;18.70;;;11.25;;
69172;SDS011;56280;49.662;8.408;2023-09-12T00:55:45;17.50;;;9.95;;
69172;SDS011;56280;49.662;8.408;2023-09-12T00:58:15;17.03;;;10.70;;
69172;SDS011;56280;49.662;8.408;2023-09-12T01:00:41;22.80;;;12.00;;
69172;SDS011;56280;49.662;8.408;2023-09-12T01:03:06;24.58;;;13.35;;
69172;SDS011;56280;49.662;8.408;2023-09-12T01:05:32;19.87;;;13.70;;
69172;SDS011;56280;49.662;8.408;2023-09-12T01:08:00;23.00;;;11.43;;
69172;SDS011;56280;49.662;8.408;2023-09-12T01:10:26;25.42;;;13.68;;
69172;SDS011;56280;49.662;8.408;2023-09-12T01:12:52;25.67;;;14.68;;
69172;SDS011;56280;49.662;8.408;2023-09-12T01:15:17;26.33;;;15.00;;
69172;SDS011;56280;49.662;8.408;2023-09-12T01:17:45;20.17;;;12.20;;
69172;SDS011;56280;49.662;8.408;2023-09-12T01:20:14;25.15;;;14.25;;
69172;SDS011;56280;49.662;8.408;2023-09-12T01:28:49;19.55;;;10.00;;
69172;SDS011;56280;49.662;8.408;2023-09-12T01:31:18;22.17;;;9.88;;
69172;SDS011;56280;49.662;8.408;2023-09-12T01:33:44;21.75;;;9.57;;
69172;SDS011;56280;49.662;8.408;2023-09-12T01:36:09;20.23;;;9.00;;
69172;SDS011;56280;49.662;8.408;2023-09-12T01:38:35;18.77;;;9.60;;
69172;SDS011;56280;49.662;8.408;2023-09-12T01:41:00;21.03;;;9.30;;
69172;SDS011;56280;49.662;8.408;2023-09-12T01:43:26;21.60;;;9.45;;
69172;SDS011;56280;49.662;8.408;2023-09-12T01:45:53;17.83;;;9.38;;
69172;SDS011;56280;49.662;8.408;2023-09-12T01:48:22;18.55;;;8.90;;
69172;SDS011;56280;49.662;8.408;2023-09-12T01:50:51;19.80;;;8.73;;
69172;SDS011;56280;49.662;8.408;2023-09-12T01:53:18;16.20;;;8.30;;
69172;SDS011;56280;49.662;8.408;2023-09-12T01:55:46;18.87;;;9.20;;
69172;SDS011;56280;49.662;8.408;2023-09-12T01:58:13;21.13;;;9.45;;
69172;SDS011;56280;49.662;8.408;2023-09-12T02:00:39;19.90;;;9.18;;
69172;SDS011;56280;49.662;8.408;2023-09-12T02:03:05;17.90;;;10.30;;
69172;SDS011;56280;49.662;8.408;2023-09-12T02:05:31;20.67;;;10.20;;
69172;SDS011;56280;49.662;8.408;2023-09-12T02:07:56;18.87;;;10.03;;
69172;SDS011;56280;49.662;8.408;2023-09-12T02:10:22;18.50;;;9.27;;
69172;SDS011;56280;49.662;8.408;2023-09-12T02:12:47;18.83;;;9.80;;
69172;SDS011;56280;49.662;8.408;2023-09-12T02:15:12;19.10;;;9.40;;
69172;SDS011;56280;49.662;8.408;2023-09-12T02:17:38;17.02;;;9.05;;
69172;SDS011;56280;49.662;8.408;2023-09-12T02:20:05;16.60;;;8.50;;
69172;SDS011;56280;49.662;8.408;2023-09-12T02:22:34;18.80;;;8.97;;
69172;SDS011;56280;49.662;8.408;2023-09-12T02:25:03;16.08;;;8.63;;
69172;SDS011;56280;49.662;8.408;2023-09-12T02:27:32;17.45;;;8.52;;
69172;SDS011;56280;49.662;8.408;2023-09-12T02:29:58;18.07;;;8.87;;
69172;SDS011;56280;49.662;8.408;2023-09-12T02:32:23;18.23;;;9.00;;
69172;SDS011;56280;49.662;8.408;2023-09-12T02:34:48;14.87;;;8.80;;
69172;SDS011;56280;49.662;8.408;2023-09-12T02:37:13;16.90;;;8.80;;
69172;SDS011;56280;49.662;8.408;2023-09-12T02:43:02;20.42;;;10.07;;
69172;SDS011;56280;49.662;8.408;2023-09-12T02:45:28;21.77;;;10.77;;
69172;SDS011;56280;49.662;8.408;2023-09-12T02:47:53;21.97;;;10.63;;
69172;SDS011;56280;49.662;8.408;2023-09-12T02:50:18;20.30;;;10.17;;
69172;SDS011;56280;49.662;8.408;2023-09-12T02:52:44;19.27;;;10.70;;
69172;SDS011;56280;49.662;8.408;2023-09-12T02:55:09;20.90;;;10.27;;
69172;SDS011;56280;49.662;8.408;2023-09-12T02:57:35;18.77;;;10.40;;
69172;SDS011;56280;49.662;8.408;2023-09-12T03:00:04;20.67;;;10.60;;
69172;SDS011;56280;49.662;8.408;2023-09-12T03:02:32;24.48;;;13.20;;
69172;SDS011;56280;49.662;8.408;2023-09-12T03:04:57;21.43;;;12.70;;
69172;SDS011;56280;49.662;8.408;2023-09-12T03:07:22;23.07;;;12.53;;
69172;SDS011;56280;49.662;8.408;2023-09-12T03:09:48;22.50;;;13.10;;
69172;SDS011;56280;49.662;8.408;2023-09-12T03:12:14;27.58;;;13.50;;
69172;SDS011;56280;49.662;8.408;2023-09-12T03:14:40;20.43;;;12.67;;
69172;SDS011;56280;49.662;8.408;2023-09-12T03:17:05;21.17;;;11.97;;
69172;SDS011;56280;49.662;8.408;2023-09-12T03:19:31;19.52;;;10.85;;
69172;SDS011;56280;49.662;8.408;2023-09-12T03:21:56;23.08;;;11.05;;
69172;SDS011;56280;49.662;8.408;2023-09-12T03:24:21;19.07;;;11.13;;
69172;SDS011;56280;49.662;8.408;2023-09-12T03:26:49;18.30;;;11.55;;
69172;SDS011;56280;49.662;8.408;2023-09-12T03:29:15;19.13;;;10.57;;
69172;SDS011;56280;49.662;8.408;2023-09-12T03:31:40;17.43;;;10.30;;
69172;SDS011;56280;49.662;8.408;2023-09-12T03:34:08;18.23;;;9.93;;
69172;SDS011;56280;49.662;8.408;2023-09-12T03:36:33;23.30;;;10.02;;
69172;SDS011;56280;49.662;8.408;2023-09-12T03:38:59;17.50;;;10.13;;
69172;SDS011;56280;49.662;8.408;2023-09-12T03:41:27;23.13;;;10.60;;
69172;SDS011;56280;49.662;8.408;2023-09-12T03:43:53;18.85;;;10.50;;
69172;SDS011;56280;49.662;8.408;2023-09-12T03:46:19;17.30;;;10.65;;
69172;SDS011;56280;49.662;8.408;2023-09-12T03:48:44;21.53;;;10.57;;
69172;SDS011;56280;49.662;8.408;2023-09-12T03:51:13;20.83;;;10.20;;
69172;SDS011;56280;49.662;8.408;2023-09-12T03:53:38;20.07;;;10.70;;
69172;SDS011;56280;49.662;8.408;2023-09-12T03:56:03;19.80;;;10.40;;
69172;SDS011;56280;49.662;8.408;2023-09-12T03:58:29;21.90;;;10.67;;
69172;SDS011;56280;49.662;8.408;2023-09-12T04:00:54;18.48;;;11.30;;
69172;SDS011;56280;49.662;8.408;2023-09-12T04:03:23;19.97;;;11.67;;
69172;SDS011;56280;49.662;8.408;2023-09-12T04:05:49;20.45;;;11.82;;
69172;SDS011;56280;49.662;8.408;2023-09-12T04:08:15;21.75;;;11.50;;
69172;SDS011;56280;49.662;8.408;2023-09-12T04:10:41;20.60;;;11.80;;
69172;SDS011;56280;49.662;8.408;2023-09-12T04:13:07;19.73;;;12.70;;
69172;SDS011;56280;49.662;8.408;2023-09-12T04:15:34;22.20;;;11.73;;
69172;SDS011;56280;49.662;8.408;2023-09-12T04:18:00;23.05;;;11.57;;
69172;SDS011;56280;49.662;8.408;2023-09-12T04:20:26;19.37;;;11.33;;
69172;SDS011;56280;49.662;8.408;2023-09-12T04:22:51;23.60;;;11.13;;
69172;SDS011;56280;49.662;8.408;2023-09-12T04:25:19;21.33;;;11.43;;
69172;SDS011;56280;49.662;8.408;2023-09-12T04:27:47;22.20;;;11.18;;
69172;SDS011;56280;49.662;8.408;2023-09-12T04:30:18;19.02;;;11.00;;
69172;SDS011;56280;49.662;8.408;2023-09-12T04:32:43;21.20;;;10.25;;
69172;SDS011;56280;49.662;8.408;2023-09-12T04:35:08;23.13;;;11.33;;
69172;SDS011;56280;49.662;8.408;2023-09-12T04:37:37;16.83;;;9.13;;
69172;SDS011;56280;49.662;8.408;2023-09-12T04:40:10;18.85;;;10.82;;
69172;SDS011;56280;49.662;8.408;2023-09-12T04:42:45;19.42;;;10.07;;
69172;SDS011;56280;49.662;8.408;2023-09-12T04:45:10;18.37;;;10.40;;
69172;SDS011;56280;49.662;8.408;2023-09-12T04:47:36;19.30;;;10.67;;
69172;SDS011;56280;49.662;8.408;2023-09-12T04:50:01;23.77;;;10.60;;
69172;SDS011;56280;49.662;8.408;2023-09-12T04:52:26;21.65;;;10.48;;
69172;SDS011;56280;49.662;8.408;2023-09-12T04:54:52;20.37;;;10.37;;
69172;SDS011;56280;49.662;8.408;2023-09-12T04:57:17;17.35;;;10.57;;
69172;SDS011;56280;49.662;8.408;2023-09-12T04:59:43;20.70;;;10.50;;
69172;SDS011;56280;49.662;8.408;2023-09-12T05:02:09;20.50;;;10.80;;
69172;SDS011;56280;49.662;8.408;2023-09-12T05:04:34;20.50;;;11.50;;
69172;SDS011;56280;49.662;8.408;2023-09-12T05:06:59;22.87;;;11.40;;
69172;SDS011;56280;49.662;8.408;2023-09-12T05:09:25;21.13;;;11.83;;
69172;SDS011;56280;49.662;8.408;2023-09-12T05:11:57;20.08;;;11.60;;
69172;SDS011;56280;49.662;8.408;2023-09-12T05:14:23;20.17;;;11.10;;
69172;SDS011;56280;49.662;8.408;2023-09-12T05:16:48;19.63;;;11.50;;
69172;SDS011;56280;49.662;8.408;2023-09-12T05:19:19;22.40;;;11.45;;
69172;SDS011;56280;49.662;8.408;2023-09-12T05:21:54;24.37;;;11.70;;
69172;SDS011;56280;49.662;8.408;2023-09-12T05:24:22;21.27;;;11.30;;
69172;SDS011;56280;49.662;8.408;2023-09-12T05:26:47;21.90;;;11.13;;
69172;SDS011;56280;49.662;8.408;2023-09-12T05:29:14;21.23;;;10.80;;
69172;SDS011;56280;49.662;8.408;2023-09-12T05:31:39;20.08;;;11.32;;
69172;SDS011;56280;49.662;8.408;2023-09-12T05:34:05;19.95;;;11.18;;
69172;SDS011;56280;49.662;8.408;2023-09-12T05:36:33;22.90;;;12.87;;
69172;SDS011;56280;49.662;8.408;2023-09-12T05:39:02;21.85;;;11.55;;
69172;SDS011;56280;49.662;8.408;2023-09-12T05:41:30;21.40;;;11.05;;
69172;SDS011;56280;49.662;8.408;2023-09-12T05:43:58;19.37;;;11.50;;
69172;SDS011;56280;49.662;8.408;2023-09-12T05:46:23;19.37;;;11.10;;
69172;SDS011;56280;49.662;8.408;2023-09-12T05:48:54;19.67;;;11.43;;
69172;SDS011;56280;49.662;8.408;2023-09-12T05:51:36;21.23;;;11.38;;
69172;SDS011;56280;49.662;8.408;2023-09-12T05:54:04;22.83;;;12.27;;
69172;SDS011;56280;49.662;8.408;2023-09-12T05:56:30;22.57;;;11.87;;
69172;SDS011;56280;49.662;8.408;2023-09-12T05:58:55;23.07;;;11.80;;
69172;SDS011;56280;49.662;8.408;2023-09-12T06:01:21;23.13;;;11.57;;
69172;SDS011;56280;49.662;8.408;2023-09-12T06:03:46;21.47;;;11.20;;
69172;SDS011;56280;49.662;8.408;2023-09-12T06:06:17;22.40;;;11.60;;
69172;SDS011;56280;49.662;8.408;2023-09-12T06:08:42;19.77;;;11.70;;
69172;SDS011;56280;49.662;8.408;2023-09-12T06:11:10;22.57;;;11.40;;
69172;SDS011;56280;49.662;8.408;2023-09-12T06:13:36;19.42;;;11.23;;
69172;SDS011;56280;49.662;8.408;2023-09-12T06:16:24;20.63;;;11.02;;
69172;SDS011;56280;49.662;8.408;2023-09-12T06:19:36;21.67;;;10.90;;
69172;SDS011;56280;49.662;8.408;2023-09-12T06:22:10;22.50;;;11.55;;
69172;SDS011;56280;49.662;8.408;2023-09-12T06:25:16;20.70;;;11.15;;
69172;SDS011;56280;49.662;8.408;2023-09-12T06:28:23;21.13;;;11.00;;
69172;SDS011;56280;49.662;8.408;2023-09-12T06:30:56;25.70;;;11.23;;
69172;SDS011;56280;49.662;8.408;2023-09-12T06:33:25;20.73;;;11.07;;
69172;SDS011;56280;49.662;8.408;2023-09-12T06:35:51;21.83;;;10.90;;
69172;SDS011;56280;49.662;8.408;2023-09-12T06:38:24;22.15;;;11.27;;
69172;SDS011;56280;49.662;8.408;2023-09-12T06:40:55;21.65;;;11.30;;
69172;SDS011;56280;49.662;8.408;2023-09-12T06:43:23;24.33;;;11.32;;
69172;SDS011;56280;49.662;8.408;2023-09-12T06:45:48;20.43;;;11.13;;
69172;SDS011;56280;49.662;8.408;2023-09-12T06:48:16;19.48;;;10.70;;
69172;SDS011;56280;49.662;8.408;2023-09-12T06:50:52;19.52;;;9.95;;
69172;SDS011;56280;49.662;8.408;2023-09-12T06:53:24;21.65;;;10.50;;
69172;SDS011;56280;49.662;8.408;2023-09-12T06:55:49;21.63;;;10.93;;
69172;SDS011;56280;49.662;8.408;2023-09-12T06:58:24;17.20;;;9.48;;
69172;SDS011;56280;49.662;8.408;2023-09-12T07:00:56;18.55;;;9.27;;
69172;SDS011;56280;49.662;8.408;2023-09-12T07:03:29;20.85;;;9.60;;
69172;SDS011;56280;49.662;8.408;2023-09-12T07:06:18;18.85;;;9.55;;
69172;SDS011;56280;49.662;8.408;2023-09-12T07:08:45;19.38;;;10.02;;
69172;SDS011;56280;49.662;8.408;2023-09-12T07:11:18;19.95;;;9.45;;
69172;SDS011;56280;49.662;8.408;2023-09-12T07:13:49;19.30;;;10.10;;
69172;SDS011;56280;49.662;8.408;2023-09-12T07:16:17;22.65;;;10.27;;
69172;SDS011;56280;49.662;8.408;2023-09-12T07:18:47;24.02;;;10.50;;
69172;SDS011;56280;49.662;8.408;2023-09-12T07:21:15;23.25;;;10.77;;
69172;SDS011;56280;49.662;8.408;2023-09-12T07:23:41;24.37;;;11.20;;
69172;SDS011;56280;49.662;8.408;2023-09-12T07:26:11;22.87;;;11.50;;
69172;SDS011;56280;49.662;8.408;2023-09-12T07:28:40;24.35;;;12.10;;
69172;SDS011;56280;49.662;8.408;2023-09-12T07:31:06;21.53;;;11.83;;
69172;SDS011;56280;49.662;8.408;2023-09-12T07:33:32;23.20;;;11.23;;
69172;SDS011;56280;49.662;8.408;2023-09-12T07:36:03;25.07;;;11.07;;
69172;SDS011;56280;49.662;8.408;2023-09-12T07:38:29;23.35;;;10.90;;
69172;SDS011;56280;49.662;8.408;2023-09-12T07:41:00;21.00;;;10.38;;
69172;SDS011;56280;49.662;8.408;2023-09-12T07:43:30;20.15;;;10.70;;
69172;SDS011;56280;49.662;8.408;2023-09-12T07:45:56;22.97;;;10.37;;
69172;SDS011;56280;49.662;8.408;2023-09-12T07:48:22;19.47;;;10.07;;
69172;SDS011;56280;49.662;8.408;2023-09-12T07:50:48;21.88;;;9.80;;
69172;SDS011;56280;49.662;8.408;2023-09-12T07:53:13;18.13;;;9.35;;
69172;SDS011;56280;49.662;8.408;2023-09-12T07:55:39;19.83;;;9.63;;
69172;SDS011;56280;49.662;8.408;2023-09-12T07:58:11;21.70;;;10.07;;
69172;SDS011;56280;49.662;8.408;2023-09-12T08:00:49;20.58;;;10.27;;
69172;SDS011;56280;49.662;8.408;2023-09-12T08:03:15;19.85;;;10.30;;
69172;SDS011;56280;49.662;8.408;2023-09-12T08:05:40;18.30;;;9.43;;
69172;SDS011;56280;49.662;8.408;2023-09-12T08:08:06;19.23;;;9.37;;
69172;SDS011;56280;49.662;8.408;2023-09-12T08:10:31;18.15;;;9.73;;
69172;SDS011;56280;49.662;8.408;2023-09-12T08:13:20;18.60;;;8.83;;
69172;SDS011;56280;49.662;8.408;2023-09-12T08:15:45;18.23;;;9.80;;
69172;SDS011;56280;49.662;8.408;2023-09-12T08:18:11;18.45;;;9.68;;
69172;SDS011;56280;49.662;8.408;2023-09-12T08:20:37;16.50;;;8.95;;
69172;SDS011;56280;49.662;8.408;2023-09-12T08:23:02;19.25;;;10.10;;
69172;SDS011;56280;49.662;8.408;2023-09-12T08:25:28;23.60;;;9.70;;
69172;SDS011;56280;49.662;8.408;2023-09-12T08:27:53;18.30;;;9.20;;
69172;SDS011;56280;49.662;8.408;2023-09-12T08:30:19;22.13;;;9.67;;
69172;SDS011;56280;49.662;8.408;2023-09-12T08:32:44;21.70;;;10.90;;
69172;SDS011;56280;49.662;8.408;2023-09-12T08:35:10;21.67;;;11.30;;
69172;SDS011;56280;49.662;8.408;2023-09-12T08:37:37;22.00;;;11.02;;
69172;SDS011;56280;49.662;8.408;2023-09-12T08:40:04;19.35;;;10.23;;
69172;SDS011;56280;49.662;8.408;2023-09-12T08:42:37;21.02;;;10.50;;
69172;SDS011;56280;49.662;8.408;2023-09-12T08:45:17;20.80;;;9.93;;
69172;SDS011;56280;49.662;8.408;2023-09-12T08:47:44;17.43;;;9.90;;
69172;SDS011;56280;49.662;8.408;2023-09-12T08:50:14;18.23;;;10.90;;
69172;SDS011;56280;49.662;8.408;2023-09-12T08:52:41;21.43;;;10.67;;
69172;SDS011;56280;49.662;8.408;2023-09-12T08:55:13;24.00;;;11.45;;
69172;SDS011;56280;49.662;8.408;2023-09-12T08:57:40;22.02;;;11.95;;
69172;SDS011;56280;49.662;8.408;2023-09-12T09:00:35;21.85;;;12.63;;
69172;SDS011;56280;49.662;8.408;2023-09-12T09:03:01;23.58;;;12.70;;
69172;SDS011;56280;49.662;8.408;2023-09-12T09:05:36;23.05;;;13.02;;
69172;SDS011;56280;49.662;8.408;2023-09-12T09:08:04;26.00;;;13.10;;
69172;SDS011;56280;49.662;8.408;2023-09-12T09:10:40;25.75;;;13.63;;
69172;SDS011;56280;49.662;8.408;2023-09-12T09:13:31;24.98;;;13.30;;
69172;SDS011;56280;49.662;8.408;2023-09-12T09:16:42;24.67;;;14.50;;
69172;SDS011;56280;49.662;8.408;2023-09-12T09:19:00;27.90;;;13.57;;
69172;SDS011;56280;49.662;8.408;2023-09-12T09:21:38;24.25;;;14.18;;
69172;SDS011;56280;49.662;8.408;2023-09-12T09:24:09;24.10;;;13.85;;
69172;SDS011;56280;49.662;8.408;2023-09-12T09:26:48;24.83;;;14.80;;
69172;SDS011;56280;49.662;8.408;2023-09-12T09:29:24;28.13;;;14.55;;
69172;SDS011;56280;49.662;8.408;2023-09-12T09:32:07;25.97;;;15.40;;
69172;SDS011;56280;49.662;8.408;2023-09-12T09:34:41;27.95;;;15.20;;
69172;SDS011;56280;49.662;8.408;2023-09-12T09:37:09;24.13;;;13.98;;
69172;SDS011;56280;49.662;8.408;2023-09-12T09:39:34;27.63;;;15.20;;
69172;SDS011;56280;49.662;8.408;2023-09-12T09:42:00;27.63;;;15.50;;
69172;SDS011;56280;49.662;8.408;2023-09-12T09:44:26;25.37;;;15.00;;
69172;SDS011;56280;49.662;8.408;2023-09-12T09:46:59;28.98;;;14.95;;
69172;SDS011;56280;49.662;8.408;2023-09-12T09:49:30;30.08;;;16.25;;
69172;SDS011;56280;49.662;8.408;2023-09-12T09:51:59;26.77;;;14.30;;
69172;SDS011;56280;49.662;8.408;2023-09-12T09:54:32;25.63;;;15.05;;
69172;SDS011;56280;49.662;8.408;2023-09-12T09:57:00;26.58;;;14.60;;
69172;SDS011;56280;49.662;8.408;2023-09-12T09:59:26;25.83;;;13.48;;
69172;SDS011;56280;49.662;8.408;2023-09-12T10:01:57;28.50;;;15.80;;
69172;SDS011;56280;49.662;8.408;2023-09-12T10:04:28;25.63;;;14.85;;
69172;SDS011;56280;49.662;8.408;2023-09-12T10:06:57;28.08;;;13.75;;
69172;SDS011;56280;49.662;8.408;2023-09-12T10:09:25;24.15;;;13.18;;
69172;SDS011;56280;49.662;8.408;2023-09-12T10:11:55;22.80;;;13.05;;
69172;SDS011;56280;49.662;8.408;2023-09-12T10:14:23;22.83;;;12.98;;
69172;SDS011;56280;49.662;8.408;2023-09-12T10:16:51;24.67;;;13.15;;
69172;SDS011;56280;49.662;8.408;2023-09-12T10:19:25;26.30;;;13.30;;
69172;SDS011;56280;49.662;8.408;2023-09-12T10:22:02;26.80;;;12.57;;
69172;SDS011;56280;49.662;8.408;2023-09-12T10:24:38;24.10;;;12.07;;
69172;SDS011;56280;49.662;8.408;2023-09-12T10:27:09;19.23;;;10.88;;
69172;SDS011;56280;49.662;8.408;2023-09-12T10:29:37;20.42;;;10.38;;
69172;SDS011;56280;49.662;8.408;2023-09-12T10:32:03;19.67;;;10.87;;
69172;SDS011;56280;49.662;8.408;2023-09-12T10:34:30;22.63;;;11.00;;
69172;SDS011;56280;49.662;8.408;2023-09-12T10:36:57;17.15;;;9.90;;
69172;SDS011;56280;49.662;8.408;2023-09-12T10:39:26;18.58;;;9.77;;
69172;SDS011;56280;49.662;8.408;2023-09-12T10:41:53;24.10;;;10.67;;
69172;SDS011;56280;49.662;8.408;2023-09-12T10:44:22;22.27;;;10.37;;
69172;SDS011;56280;49.662;8.408;2023-09-12T10:46:56;19.25;;;10.25;;
69172;SDS011;56280;49.662;8.408;2023-09-12T10:49:26;18.35;;;10.90;;
69172;SDS011;56280;49.662;8.408;2023-09-12T10:51:58;17.25;;;9.25;;
69172;SDS011;56280;49.662;8.408;2023-09-12T10:54:24;14.00;;;8.05;;
69172;SDS011;56280;49.662;8.408;2023-09-12T10:57:10;16.92;;;8.40;;
69172;SDS011;56280;49.662;8.408;2023-09-12T11:00:08;13.65;;;8.27;;
69172;SDS011;56280;49.662;8.408;2023-09-12T11:02:28;13.93;;;8.00;;
69172;SDS011;56280;49.662;8.408;2023-09-12T11:04:57;14.70;;;7.85;;
69172;SDS011;56280;49.662;8.408;2023-09-12T11:07:30;18.35;;;8.13;;
69172;SDS011;56280;49.662;8.408;2023-09-12T11:12:46;14.68;;;8.20;;
69172;SDS011;56280;49.662;8.408;2023-09-12T11:15:16;14.48;;;8.15;;
69172;SDS011;56280;49.662;8.408;2023-09-12T11:17:46;16.23;;;8.13;;
69172;SDS011;56280;49.662;8.408;2023-09-12T11:20:13;14.25;;;7.60;;
69172;SDS011;56280;49.662;8.408;2023-09-12T11:22:43;14.38;;;7.95;;
69172;SDS011;56280;49.662;8.408;2023-09-12T11:25:17;15.38;;;8.30;;
69172;SDS011;56280;49.662;8.408;2023-09-12T11:30:16;15.53;;;8.37;;
69172;SDS011;56280;49.662;8.408;2023-09-12T11:32:43;12.07;;;8.32;;
69172;SDS011;56280;49.662;8.408;2023-09-12T11:35:11;16.15;;;7.80;;
69172;SDS011;56280;49.662;8.408;2023-09-12T11:37:38;13.85;;;8.02;;
69172;SDS011;56280;49.662;8.408;2023-09-12T11:42:40;13.13;;;8.05;;
69172;SDS011;56280;49.662;8.408;2023-09-12T11:45:11;14.43;;;7.97;;
69172;SDS011;56280;49.662;8.408;2023-09-12T11:47:42;13.88;;;8.20;;
69172;SDS011;56280;49.662;8.408;2023-09-12T11:50:25;16.00;;;8.50;;
69172;SDS011;56280;49.662;8.408;2023-09-12T11:55:30;13.60;;;8.20;;
69172;SDS011;56280;49.662;8.408;2023-09-12T11:58:00;11.73;;;7.75;;
69172;SDS011;56280;49.662;8.408;2023-09-12T12:00:25;13.00;;;8.20;;
69172;SDS011;56280;49.662;8.408;2023-09-12T12:02:52;15.80;;;7.93;;
69172;SDS011;56280;49.662;8.408;2023-09-12T12:05:18;13.67;;;8.33;;
69172;SDS011;56280;49.662;8.408;2023-09-12T12:07:44;12.90;;;8.00;;
69172;SDS011;56280;49.662;8.408;2023-09-12T12:10:11;14.38;;;8.43;;
69172;SDS011;56280;49.662;8.408;2023-09-12T12:12:37;14.30;;;8.40;;
69172;SDS011;56280;49.662;8.408;2023-09-12T12:15:02;14.80;;;8.40;;
69172;SDS011;56280;49.662;8.408;2023-09-12T12:17:28;12.80;;;8.60;;
69172;SDS011;56280;49.662;8.408;2023-09-12T12:19:53;15.13;;;7.93;;
69172;SDS011;56280;49.662;8.408;2023-09-12T12:22:18;12.50;;;8.27;;
69172;SDS011;56280;49.662;8.408;2023-09-12T12:24:45;14.50;;;8.87;;
69172;SDS011;56280;49.662;8.408;2023-09-12T12:27:14;14.32;;;8.60;;
69172;SDS011;56280;49.662;8.408;2023-09-12T12:29:40;14.18;;;8.48;;
69172;SDS011;56280;49.662;8.408;2023-09-12T12:32:05;14.73;;;8.57;;
69172;SDS011;56280;49.662;8.408;2023-09-12T12:34:33;14.60;;;8.30;;
69172;SDS011;56280;49.662;8.408;2023-09-12T12:36:58;32.97;;;14.13;;
69172;SDS011;56280;49.662;8.408;2023-09-12T12:39:26;17.42;;;9.65;;
69172;SDS011;56280;49.662;8.408;2023-09-12T12:41:54;13.17;;;8.50;;
69172;SDS011;56280;49.662;8.408;2023-09-12T12:44:20;15.82;;;9.10;;
69172;SDS011;56280;49.662;8.408;2023-09-12T12:46:50;24.10;;;10.98;;
69172;SDS011;56280;49.662;8.408;2023-09-12T12:49:19;17.30;;;9.30;;
69172;SDS011;56280;49.662;8.408;2023-09-12T12:51:45;14.93;;;8.27;;
69172;SDS011;56280;49.662;8.408;2023-09-12T12:54:12;16.30;;;8.70;;
69172;SDS011;56280;49.662;8.408;2023-09-12T12:56:37;16.58;;;8.75;;
69172;SDS011;56280;49.662;8.408;2023-09-12T12:59:04;13.70;;;8.60;;
69172;SDS011;56280;49.662;8.408;2023-09-12T13:01:33;16.55;;;8.40;;
69172;SDS011;56280;49.662;8.408;2023-09-12T13:03:59;16.00;;;8.47;;
69172;SDS011;56280;49.662;8.408;2023-09-12T13:06:24;14.00;;;8.73;;
69172;SDS011;56280;49.662;8.408;2023-09-12T13:08:52;17.50;;;9.13;;
69172;SDS011;56280;49.662;8.408;2023-09-12T13:11:17;25.00;;;11.18;;
69172;SDS011;56280;49.662;8.408;2023-09-12T13:13:43;17.17;;;8.73;;
69172;SDS011;56280;49.662;8.408;2023-09-12T13:16:09;14.80;;;8.80;;
69172;SDS011;56280;49.662;8.408;2023-09-12T13:18:38;13.40;;;8.90;;
69172;SDS011;56280;49.662;8.408;2023-09-12T13:21:04;13.20;;;8.80;;
69172;SDS011;56280;49.662;8.408;2023-09-12T13:23:30;15.47;;;8.57;;
69172;SDS011;56280;49.662;8.408;2023-09-12T13:25:58;13.60;;;8.20;;
69172;SDS011;56280;49.662;8.408;2023-09-12T13:28:23;12.93;;;8.60;;
69172;SDS011;56280;49.662;8.408;2023-09-12T13:30:50;16.23;;;8.60;;
69172;SDS011;56280;49.662;8.408;2023-09-12T13:33:15;13.97;;;8.53;;
69172;SDS011;56280;49.662;8.408;2023-09-12T13:35:41;14.23;;;8.50;;
69172;SDS011;56280;49.662;8.408;2023-09-12T13:38:06;13.67;;;8.53;;
69172;SDS011;56280;49.662;8.408;2023-09-12T13:40:41;15.32;;;8.40;;
69172;SDS011;56280;49.662;8.408;2023-09-12T13:43:07;13.80;;;8.30;;
69172;SDS011;56280;49.662;8.408;2023-09-12T13:45:35;13.45;;;8.32;;
69172;SDS011;56280;49.662;8.408;2023-09-12T13:48:04;14.57;;;8.23;;
69172;SDS011;56280;49.662;8.408;2023-09-12T13:50:30;12.95;;;8.18;;
69172;SDS011;56280;49.662;8.408;2023-09-12T13:52:57;14.35;;;8.18;;
69172;SDS011;56280;49.662;8.408;2023-09-12T13:55:36;13.48;;;8.00;;
69172;SDS011;56280;49.662;8.408;2023-09-12T13:58:04;14.43;;;8.52;;
69172;SDS011;56280;49.662;8.408;2023-09-12T14:00:31;13.85;;;7.88;;
69172;SDS011;56280;49.662;8.408;2023-09-12T14:02:58;14.68;;;8.55;;
69172;SDS011;56280;49.662;8.408;2023-09-12T14:05:23;13.00;;;8.20;;
69172;SDS011;56280;49.662;8.408;2023-09-12T14:11:11;11.27;;;7.63;;
69172;SDS011;56280;49.662;8.408;2023-09-12T14:13:36;11.73;;;7.50;;
69172;SDS011;56280;49.662;8.408;2023-09-12T14:16:01;11.93;;;7.93;;
69172;SDS011;56280;49.662;8.408;2023-09-12T14:18:27;13.00;;;7.93;;
69172;SDS011;56280;49.662;8.408;2023-09-12T14:20:53;14.87;;;8.03;;
69172;SDS011;56280;49.662;8.408;2023-09-12T14:23:18;12.02;;;8.05;;
69172;SDS011;56280;49.662;8.408;2023-09-12T14:25:43;15.65;;;8.30;;
69172;SDS011;56280;49.662;8.408;2023-09-12T14:28:09;14.13;;;7.67;;
69172;SDS011;56280;49.662;8.408;2023-09-12T14:30:34;10.70;;;7.50;;
69172;SDS011;56280;49.662;8.408;2023-09-12T14:33:01;12.15;;;7.85;;
69172;SDS011;56280;49.662;8.408;2023-09-12T14:35:28;14.95;;;7.82;;
69172;SDS011;56280;49.662;8.408;2023-09-12T14:37:53;13.23;;;7.95;;
69172;SDS011;56280;49.662;8.408;2023-09-12T14:40:19;11.70;;;7.80;;
69172;SDS011;56280;49.662;8.408;2023-09-12T14:46:06;11.57;;;7.50;;
69172;SDS011;56280;49.662;8.408;2023-09-12T14:48:33;12.88;;;7.65;;
69172;SDS011;56280;49.662;8.408;2023-09-12T14:51:00;13.60;;;7.70;;
69172;SDS011;56280;49.662;8.408;2023-09-12T14:53:26;14.67;;;8.00;;
69172;SDS011;56280;49.662;8.408;2023-09-12T14:55:52;12.52;;;7.60;;
69172;SDS011;56280;49.662;8.408;2023-09-12T14:58:18;11.83;;;7.60;;
69172;SDS011;56280;49.662;8.408;2023-09-12T15:00:43;13.77;;;7.50;;
69172;SDS011;56280;49.662;8.408;2023-09-12T15:03:08;11.73;;;7.80;;